Time;durP1;ratioP1;P1;durP2;ratioP2;P2;SDS_P1;SDS_P2;PMS_P1;PMS_P2;Temp;Humidity;BMP_temperature;BMP_pressure;BME280_temperature;BME280_humidity;BME280_pressure;Samples;Min_cycle;Max_cycle;Signal;HPM_P1;HPM_P2
2022/08/15 00:01:07;;;;;;;12.95;11.68;;;20.80;99.90;;;;;;5111237;28;20224;-51
2022/08/15 00:03:39;;;;;;;13.48;12.13;;;20.80;99.90;;;;;;5111671;28;20230;-51
2022/08/15 00:06:30;;;;;;;13.07;11.68;;;20.80;99.90;;;;;;5111958;28;20233;-51
2022/08/15 00:09:13;;;;;;;13.00;11.57;;;20.60;99.90;;;;;;5111774;28;20213;-52
2022/08/15 00:11:43;;;;;;;12.20;11.00;;;20.60;99.90;;;;;;5112256;28;20227;-52
2022/08/15 00:14:18;;;;;;;13.00;11.70;;;20.60;99.90;;;;;;5112206;28;20195;-52
2022/08/15 00:17:01;;;;;;;13.00;11.73;;;20.60;99.90;;;;;;5111571;28;20262;-52
2022/08/15 00:19:38;;;;;;;12.98;11.68;;;20.60;99.90;;;;;;5103532;28;20202;-51
2022/08/15 00:22:10;;;;;;;12.38;11.13;;;20.60;99.90;;;;;;5111898;28;20231;-52
2022/08/15 00:24:49;;;;;;;13.10;11.38;;;20.50;99.90;;;;;;5111349;28;20216;-52
2022/08/15 00:27:20;;;;;;;12.25;11.15;;;20.50;99.90;;;;;;5111396;28;20218;-52
2022/08/15 00:29:53;;;;;;;12.77;11.48;;;20.50;99.90;;;;;;5112136;28;20325;-52
2022/08/15 00:32:24;;;;;;;13.20;11.90;;;20.50;99.90;;;;;;5110742;28;20231;-52
2022/08/15 00:38:09;;;;;;;13.50;11.95;;;20.50;99.90;;;;;;5111955;28;20196;-51
2022/08/15 00:43:34;;;;;;;13.50;12.30;;;20.40;99.90;;;;;;5116657;28;20250;-51
2022/08/15 00:46:05;;;;;;;13.50;12.18;;;20.30;99.90;;;;;;5118232;28;20232;-51
2022/08/15 00:48:49;;;;;;;13.70;12.30;;;20.30;99.90;;;;;;5116220;28;20578;-52
2022/08/15 00:51:22;;;;;;;13.95;12.65;;;20.30;99.90;;;;;;5111458;28;20230;-52
2022/08/15 00:54:02;;;;;;;12.98;11.63;;;20.30;99.90;;;;;;5111019;28;20198;-52
2022/08/15 00:56:38;;;;;;;13.25;12.02;;;20.30;99.90;;;;;;5110110;28;20199;-52
2022/08/15 00:59:10;;;;;;;12.30;11.10;;;20.20;99.90;;;;;;5111388;28;20298;-52
2022/08/15 01:01:44;;;;;;;13.13;11.73;;;20.20;99.90;;;;;;5111206;28;20230;-51
2022/08/15 01:04:28;;;;;;;12.60;11.18;;;20.20;99.90;;;;;;5110541;28;20719;-51
2022/08/15 01:07:03;;;;;;;12.43;11.23;;;20.10;99.90;;;;;;5110741;28;20207;-52
2022/08/15 01:09:32;;;;;;;12.27;11.07;;;20.10;99.90;;;;;;5110382;28;20233;-52
2022/08/15 01:12:07;;;;;;;12.85;11.65;;;20.00;99.90;;;;;;5110881;28;20651;-52
2022/08/15 01:14:37;;;;;;;12.80;11.60;;;20.00;99.90;;;;;;5110834;28;20206;-52
2022/08/15 01:17:27;;;;;;;13.00;11.73;;;20.00;99.90;;;;;;5110640;28;20229;-52
2022/08/15 01:20:05;;;;;;;12.75;11.55;;;20.00;99.90;;;;;;5110309;28;20265;-52
2022/08/15 01:22:53;;;;;;;12.57;11.38;;;20.00;99.90;;;;;;5101270;28;20223;-52
2022/08/15 01:25:27;;;;;;;13.48;12.18;;;19.90;99.90;;;;;;5110257;28;20700;-52
2022/08/15 01:28:17;;;;;;;13.57;12.27;;;19.90;99.90;;;;;;5110914;28;20291;-52
2022/08/15 01:30:50;;;;;;;13.15;11.73;;;19.80;99.90;;;;;;5110030;28;20276;-51
2022/08/15 01:33:32;;;;;;;12.75;11.50;;;19.80;99.90;;;;;;5100427;28;20300;-51
2022/08/15 01:36:00;;;;;;;12.93;11.63;;;19.80;99.90;;;;;;5109415;28;20729;-52
2022/08/15 01:38:32;;;;;;;13.27;11.30;;;19.70;99.90;;;;;;5110771;28;20294;-52
2022/08/15 01:41:29;;;;;;;13.38;11.98;;;19.80;99.90;;;;;;5110415;28;20314;-52
2022/08/15 01:44:13;;;;;;;13.32;11.95;;;19.80;99.90;;;;;;5110432;28;20203;-52
2022/08/15 01:47:06;;;;;;;13.50;12.20;;;19.80;99.90;;;;;;5109897;28;20211;-52
2022/08/15 01:49:44;;;;;;;12.70;11.32;;;19.80;99.90;;;;;;5110275;28;20249;-52
2022/08/15 01:52:31;;;;;;;13.55;11.73;;;19.80;99.90;;;;;;5109740;28;20306;-52
2022/08/15 01:55:23;;;;;;;12.70;11.50;;;19.70;99.90;;;;;;5110192;28;20204;-52
2022/08/15 01:57:53;;;;;;;12.98;11.65;;;19.70;99.90;;;;;;5110270;28;20573;-51
2022/08/15 02:00:22;;;;;;;13.88;12.50;;;19.70;99.90;;;;;;5110100;28;20207;-51
2022/08/15 02:02:54;;;;;;;16.15;12.43;;;19.70;99.90;;;;;;5109036;28;20715;-51
2022/08/15 02:05:24;;;;;;;13.02;11.70;;;19.70;99.90;;;;;;5108331;28;20231;-51
2022/08/15 02:07:58;;;;;;;13.40;12.10;;;19.70;99.90;;;;;;5113868;27;20231;-52
2022/08/15 02:10:46;;;;;;;13.10;11.80;;;19.60;99.90;;;;;;5125880;27;20380;-51
2022/08/15 02:13:20;;;;;;;13.93;12.52;;;19.60;99.90;;;;;;5115754;27;20207;-51
2022/08/15 02:15:53;;;;;;;13.80;12.40;;;19.60;99.90;;;;;;5129671;27;20679;-52
2022/08/15 02:18:21;;;;;;;13.73;12.30;;;19.60;99.90;;;;;;5129612;27;20755;-52
2022/08/15 02:20:49;;;;;;;13.93;12.55;;;19.60;99.90;;;;;;5121875;27;20227;-52
2022/08/15 02:23:19;;;;;;;13.05;11.77;;;19.60;99.90;;;;;;5124142;27;20293;-51
2022/08/15 02:25:51;;;;;;;13.35;12.05;;;19.50;99.90;;;;;;5102470;27;20226;-51
2022/08/15 02:28:24;;;;;;;13.85;12.43;;;19.60;99.90;;;;;;5121274;27;20250;-52
2022/08/15 02:31:10;;;;;;;13.63;12.27;;;19.60;99.90;;;;;;5105164;27;20226;-52
2022/08/15 02:33:41;;;;;;;13.38;11.98;;;19.60;99.90;;;;;;5119783;28;20588;-52
2022/08/15 02:36:14;;;;;;;13.35;12.05;;;19.60;99.90;;;;;;5130390;28;20286;-51
2022/08/15 02:39:01;;;;;;;13.30;11.60;;;19.50;99.90;;;;;;5115826;28;20588;-52
2022/08/15 02:41:32;;;;;;;13.32;11.93;;;19.50;99.90;;;;;;5130541;28;20231;-52
2022/08/15 02:44:12;;;;;;;13.30;12.00;;;19.50;99.90;;;;;;5130469;28;20205;-52
2022/08/15 02:46:51;;;;;;;13.07;11.75;;;19.50;99.90;;;;;;5128256;28;20218;-52
2022/08/15 02:49:36;;;;;;;13.38;12.07;;;19.50;99.90;;;;;;5129807;28;20217;-52
2022/08/15 02:52:17;;;;;;;13.73;12.32;;;19.50;99.90;;;;;;5130317;28;20745;-52
2022/08/15 02:54:48;;;;;;;13.80;12.43;;;19.50;99.90;;;;;;5125717;27;20264;-51
2022/08/15 02:57:28;;;;;;;13.73;12.35;;;19.50;99.90;;;;;;5126781;27;20575;-52
2022/08/15 02:59:58;;;;;;;14.10;12.60;;;19.50;99.90;;;;;;5134199;27;20199;-51
2022/08/15 03:02:26;;;;;;;13.82;12.52;;;19.50;99.90;;;;;;5134018;27;20231;-51
2022/08/15 03:04:58;;;;;;;14.43;13.02;;;19.50;99.90;;;;;;5133825;27;20203;-51
2022/08/15 03:07:27;;;;;;;14.18;12.50;;;19.50;99.90;;;;;;5133991;27;20297;-52
2022/08/15 03:09:55;;;;;;;13.30;11.82;;;19.50;99.90;;;;;;5133172;27;20740;-51
2022/08/15 03:12:25;;;;;;;12.77;11.50;;;19.40;99.90;;;;;;5122934;27;20238;-52
2022/08/15 03:15:01;;;;;;;13.95;12.45;;;19.40;99.90;;;;;;5131445;27;20206;-52
2022/08/15 03:17:30;;;;;;;13.52;12.25;;;19.40;99.90;;;;;;5133619;27;20218;-52
2022/08/15 03:20:05;;;;;;;13.93;12.40;;;19.40;99.90;;;;;;5121424;27;20203;-52
2022/08/15 03:22:42;;;;;;;13.07;11.75;;;19.40;99.90;;;;;;5133733;27;20345;-51
2022/08/15 03:25:14;;;;;;;14.32;11.68;;;19.40;99.90;;;;;;5133243;27;20702;-52
2022/08/15 03:27:43;;;;;;;13.98;12.48;;;19.40;99.90;;;;;;5130147;27;20561;-51
2022/08/15 03:30:16;;;;;;;14.48;12.98;;;19.40;99.90;;;;;;5130700;27;20248;-52
2022/08/15 03:32:49;;;;;;;12.75;11.63;;;19.40;99.90;;;;;;5128865;27;20206;-52
2022/08/15 03:35:21;;;;;;;14.15;12.52;;;19.40;99.90;;;;;;5122079;27;20199;-52
2022/08/15 03:37:55;;;;;;;13.20;11.98;;;19.40;99.90;;;;;;5133575;27;20199;-52
2022/08/15 03:40:28;;;;;;;12.95;11.52;;;19.50;99.90;;;;;;5133154;27;20203;-52
2022/08/15 03:43:02;;;;;;;14.40;12.38;;;19.50;99.90;;;;;;5133593;27;20270;-51
2022/08/15 03:45:45;;;;;;;13.75;12.38;;;19.50;99.90;;;;;;5133265;27;20227;-52
2022/08/15 03:48:16;;;;;;;13.35;11.88;;;19.50;99.90;;;;;;5133157;27;20260;-52
2022/08/15 03:50:50;;;;;;;13.68;12.38;;;19.40;99.90;;;;;;5132959;27;20219;-51
2022/08/15 03:53:27;;;;;;;14.10;12.68;;;19.40;99.90;;;;;;5133326;27;20225;-51
2022/08/15 03:55:57;;;;;;;14.13;12.73;;;19.40;99.90;;;;;;5122826;27;20199;-52
2022/08/15 03:58:26;;;;;;;14.13;12.82;;;19.30;99.90;;;;;;5133467;27;20203;-53
2022/08/15 04:01:06;;;;;;;13.95;12.48;;;19.30;99.90;;;;;;5132995;27;20224;-52
2022/08/15 04:03:35;;;;;;;14.52;13.02;;;19.30;99.90;;;;;;5133213;27;20206;-52
2022/08/15 04:06:08;;;;;;;15.07;13.40;;;19.20;99.90;;;;;;5131288;27;20625;-52
2022/08/15 04:08:42;;;;;;;15.10;13.60;;;19.30;99.90;;;;;;5132803;27;20249;-52
2022/08/15 04:11:31;;;;;;;15.00;12.85;;;19.30;99.90;;;;;;5129546;27;20306;-51
2022/08/15 04:14:06;;;;;;;13.85;12.35;;;19.30;99.90;;;;;;5123019;27;20207;-52
2022/08/15 04:16:56;;;;;;;13.52;12.32;;;19.30;99.90;;;;;;5133640;27;20199;-51
2022/08/15 04:19:32;;;;;;;14.07;12.27;;;19.30;99.90;;;;;;5129738;27;20223;-51
2022/08/15 04:22:16;;;;;;;13.65;12.32;;;19.30;99.90;;;;;;5127827;27;20229;-51
2022/08/15 04:25:07;;;;;;;13.55;12.23;;;19.30;99.90;;;;;;5132658;27;20293;-52
2022/08/15 04:27:40;;;;;;;18.38;14.65;;;19.30;99.90;;;;;;5129832;27;20314;-52
2022/08/15 04:30:20;;;;;;;15.18;13.77;;;19.40;99.90;;;;;;5129933;27;20238;-52
2022/08/15 04:32:50;;;;;;;14.07;12.63;;;19.30;99.90;;;;;;5128479;27;20210;-52
2022/08/15 04:35:38;;;;;;;14.35;13.00;;;19.30;99.90;;;;;;5122308;27;20278;-51
2022/08/15 04:38:06;;;;;;;13.43;12.23;;;19.40;99.90;;;;;;5132517;27;20214;-51
2022/08/15 04:40:35;;;;;;;12.88;11.57;;;19.40;99.90;;;;;;5123537;27;20273;-52
2022/08/15 04:43:24;;;;;;;13.13;11.93;;;19.40;99.90;;;;;;5111579;28;20298;-52
2022/08/15 04:45:52;;;;;;;12.45;11.15;;;19.60;99.90;;;;;;5111228;28;20264;-52
2022/08/15 04:48:25;;;;;;;12.70;11.52;;;20.10;99.90;;;;;;5111301;28;20286;-52
2022/08/15 04:50:56;;;;;;;13.27;11.98;;;20.60;99.90;;;;;;5111595;28;20238;-52
2022/08/15 04:53:28;;;;;;;12.25;10.80;;;20.90;99.90;;;;;;5111207;28;20203;-52
2022/08/15 04:56:00;;;;;;;12.90;11.63;;;20.90;99.90;;;;;;5111426;28;20208;-52
2022/08/15 04:58:31;;;;;;;13.23;11.93;;;20.60;99.90;;;;;;5111527;28;20200;-52
2022/08/15 05:01:12;;;;;;;13.23;11.93;;;20.30;99.90;;;;;;5111346;28;20227;-52
2022/08/15 05:03:44;;;;;;;12.82;11.55;;;20.20;99.90;;;;;;5111011;28;20284;-52
2022/08/15 05:06:22;;;;;;;12.32;11.10;;;20.30;99.90;;;;;;5111328;28;20227;-52
2022/08/15 05:09:00;;;;;;;12.35;11.18;;;20.30;99.90;;;;;;5110909;28;20628;-53
2022/08/15 05:11:29;;;;;;;12.40;11.20;;;20.30;99.90;;;;;;5111288;28;20215;-52
2022/08/15 05:14:18;;;;;;;12.80;11.70;;;20.30;99.90;;;;;;5123518;27;20314;-52
2022/08/15 05:17:05;;;;;;;13.13;11.77;;;20.30;99.90;;;;;;5131360;27;20241;-51
2022/08/15 05:19:39;;;;;;;14.50;13.10;;;20.30;99.90;;;;;;5119113;27;20284;-52
2022/08/15 05:22:07;;;;;;;12.10;11.10;;;20.30;99.90;;;;;;5131228;27;20711;-52
2022/08/15 05:24:36;;;;;;;11.90;10.80;;;20.40;99.90;;;;;;5131049;27;20210;-52
2022/08/15 05:27:05;;;;;;;12.90;11.70;;;20.90;99.90;;;;;;5130093;27;20226;-52
2022/08/15 05:29:38;;;;;;;14.23;12.77;;;21.20;99.90;;;;;;5122295;27;20255;-52
2022/08/15 05:32:11;;;;;;;13.05;11.93;;;21.70;99.90;;;;;;5129337;27;20230;-52
2022/08/15 05:34:48;;;;;;;13.60;12.30;;;22.40;99.90;;;;;;5122227;27;20210;-52
2022/08/15 05:37:18;;;;;;;13.43;12.23;;;22.60;99.90;;;;;;5129552;27;20464;-52
2022/08/15 05:39:48;;;;;;;12.90;11.60;;;22.30;99.90;;;;;;5129888;27;20687;-51
2022/08/15 05:42:29;;;;;;;13.02;11.82;;;22.00;99.90;;;;;;5130220;27;20227;-51
2022/08/15 05:45:11;;;;;;;13.05;11.75;;;21.90;99.90;;;;;;5113177;27;20203;-51
2022/08/15 05:48:06;;;;;;;12.48;11.27;;;21.70;99.90;;;;;;5109027;28;20302;-51
2022/08/15 05:50:53;;;;;;;14.43;13.00;;;21.60;99.90;;;;;;5110458;28;20320;-51
2022/08/15 05:53:31;;;;;;;13.00;11.85;;;21.50;99.90;;;;;;5102294;28;20212;-52
2022/08/15 05:56:05;;;;;;;15.23;13.73;;;21.40;99.90;;;;;;5109861;28;20206;-52
2022/08/15 05:58:44;;;;;;;15.40;12.88;;;21.30;99.90;;;;;;5104739;28;20560;-52
2022/08/15 06:01:19;;;;;;;15.73;14.23;;;21.30;99.90;;;;;;5110429;28;20231;-52
2022/08/15 06:03:53;;;;;;;14.88;13.45;;;21.40;99.90;;;;;;5109575;28;20242;-52
2022/08/15 06:06:29;;;;;;;15.65;14.13;;;21.70;99.90;;;;;;5110112;28;20206;-52
2022/08/15 06:09:30;;;;;;;16.00;14.50;;;21.80;99.90;;;;;;5109425;28;20292;-52
2022/08/15 06:12:01;;;;;;;15.18;13.57;;;21.80;99.90;;;;;;5109942;28;20226;-52
2022/08/15 06:14:53;;;;;;;17.17;15.57;;;21.80;99.90;;;;;;5127243;27;20285;-52
2022/08/15 06:17:26;;;;;;;15.95;13.98;;;22.00;99.90;;;;;;5130698;27;20207;-52
2022/08/15 06:19:59;;;;;;;16.45;14.68;;;22.20;99.90;;;;;;5117896;27;20204;-52
2022/08/15 06:22:50;;;;;;;15.20;13.38;;;22.60;99.90;;;;;;5130827;27;20227;-52
2022/08/15 06:25:31;;;;;;;14.48;13.10;;;23.20;99.90;;;;;;5129867;27;20710;-52
2022/08/15 06:28:22;;;;;;;14.18;12.88;;;23.70;99.90;;;;;;5123885;27;20246;-52
2022/08/15 06:31:17;;;;;;;15.68;14.02;;;23.40;99.90;;;;;;5112174;27;20226;-52
2022/08/15 06:33:55;;;;;;;15.80;14.20;;;22.90;99.90;;;;;;5115269;27;20203;-53
2022/08/15 06:36:40;;;;;;;15.27;13.75;;;22.60;99.90;;;;;;5130736;28;20207;-52
2022/08/15 06:39:21;;;;;;;15.55;14.05;;;22.30;99.90;;;;;;5129964;28;20210;-52
2022/08/15 06:41:59;;;;;;;16.50;14.90;;;22.10;99.90;;;;;;5130504;28;20218;-52
2022/08/15 06:44:28;;;;;;;16.42;14.85;;;21.80;99.90;;;;;;5129742;28;20199;-52
2022/08/15 06:47:03;;;;;;;16.08;14.45;;;21.70;99.90;;;;;;5130417;28;20222;-52
2022/08/15 06:49:38;;;;;;;16.73;14.95;;;21.70;99.90;;;;;;5125027;28;20206;-51
2022/08/15 06:52:07;;;;;;;16.10;14.50;;;21.60;99.90;;;;;;5116405;28;20277;-52
2022/08/15 06:54:44;;;;;;;15.85;14.35;;;21.60;99.90;;;;;;5101989;28;20199;-52
2022/08/15 06:57:25;;;;;;;15.10;13.52;;;21.60;99.90;;;;;;5109126;28;20217;-51
2022/08/15 07:00:01;;;;;;;14.68;13.25;;;21.50;99.90;;;;;;5109382;28;20208;-52
2022/08/15 07:02:46;;;;;;;16.52;14.80;;;21.50;99.90;;;;;;5105572;28;20226;-53
2022/08/15 07:05:22;;;;;;;15.38;13.98;;;21.40;99.90;;;;;;5095108;28;20215;-50
2022/08/15 07:08:04;;;;;;;15.30;13.70;;;21.30;99.90;;;;;;5095434;28;20230;-50
2022/08/15 07:10:43;;;;;;;14.98;13.57;;;21.20;99.90;;;;;;5108739;28;20231;-50
2022/08/15 07:13:20;;;;;;;15.52;13.90;;;21.20;99.90;;;;;;5111010;28;20218;-50
2022/08/15 07:15:55;;;;;;;15.38;13.88;;;21.10;99.90;;;;;;5130090;28;20214;-49
2022/08/15 07:18:32;;;;;;;15.25;13.40;;;21.00;99.90;;;;;;5126654;28;20570;-50
2022/08/15 07:21:03;;;;;;;14.20;12.65;;;21.00;99.90;;;;;;5121065;28;20230;-52
2022/08/15 07:24:07;;;;;;;14.80;13.40;;;21.00;99.90;;;;;;5113125;28;20222;-52
2022/08/15 07:26:59;;;;;;;15.70;13.50;;;21.00;99.90;;;;;;5109170;28;20290;-51
2022/08/15 07:29:41;;;;;;;14.65;12.80;;;21.00;99.90;;;;;;5107106;28;20215;-52
2022/08/15 07:32:12;;;;;;;14.38;12.85;;;21.00;99.90;;;;;;5108854;28;20227;-52
2022/08/15 07:35:04;;;;;;;13.88;12.57;;;21.10;99.90;;;;;;5097119;28;20208;-52
2022/08/15 07:37:42;;;;;;;14.32;12.82;;;21.10;99.90;;;;;;5108953;28;20199;-52
2022/08/15 07:40:20;;;;;;;14.13;12.75;;;21.20;99.90;;;;;;5108854;28;20199;-52
2022/08/15 07:43:01;;;;;;;15.07;13.57;;;21.30;99.90;;;;;;5112572;28;20215;-52
2022/08/15 07:45:34;;;;;;;13.93;12.48;;;21.40;99.90;;;;;;5112887;28;20239;-52
2022/08/15 07:48:06;;;;;;;15.02;13.50;;;21.60;99.90;;;;;;5112065;28;20235;-52
2022/08/15 07:50:41;;;;;;;12.77;11.55;;;22.00;99.90;;;;;;5112827;28;20309;-52
2022/08/15 07:53:17;;;;;;;12.40;11.20;;;22.60;99.90;;;;;;5111868;28;20703;-52
2022/08/15 07:56:06;;;;;;;11.88;10.65;;;23.10;99.90;;;;;;5112634;28;20200;-52
2022/08/15 07:59:09;;;;;;;11.57;10.55;;;23.10;99.90;;;;;;5101662;28;20211;-52
2022/08/15 08:01:38;;;;;;;12.30;11.20;;;23.80;99.90;;;;;;5112427;28;20231;-52
2022/08/15 08:04:11;;;;;;;12.98;11.68;;;24.20;99.90;;;;;;5112314;28;20235;-52
2022/08/15 08:06:55;;;;;;;13.10;11.98;;;24.20;99.90;;;;;;5111719;28;20227;-52
2022/08/15 08:09:31;;;;;;;13.18;11.85;;;24.20;99.90;;;;;;5110966;28;20230;-52
2022/08/15 08:12:11;;;;;;;14.25;12.85;;;23.90;99.90;;;;;;5111042;28;20589;-53
2022/08/15 08:15:02;;;;;;;13.30;12.00;;;23.70;99.90;;;;;;5128976;27;20203;-52
2022/08/15 08:17:38;;;;;;;13.10;11.75;;;23.60;99.90;;;;;;5132680;27;20727;-52
2022/08/15 08:20:22;;;;;;;14.65;12.73;;;23.40;99.90;;;;;;5119939;27;20321;-52
2022/08/15 08:22:56;;;;;;;13.30;11.90;;;23.40;99.90;;;;;;5133099;27;20203;-52
2022/08/15 08:25:28;;;;;;;12.55;11.05;;;23.30;99.90;;;;;;5132197;27;20210;-52
2022/08/15 08:28:28;;;;;;;12.77;11.05;;;23.20;99.90;;;;;;5120530;27;20219;-51
2022/08/15 08:31:10;;;;;;;14.45;12.95;;;23.00;99.90;;;;;;5132395;27;20654;-52
2022/08/15 08:33:51;;;;;;;12.60;11.40;;;22.90;99.90;;;;;;5124656;27;20199;-52
2022/08/15 08:36:31;;;;;;;14.48;12.98;;;22.80;99.90;;;;;;5131605;27;20290;-52
2022/08/15 08:39:19;;;;;;;13.43;12.07;;;22.70;99.90;;;;;;5132405;27;20238;-52
2022/08/15 08:41:58;;;;;;;13.82;12.43;;;22.90;99.90;;;;;;5131366;27;20245;-52
2022/08/15 08:44:35;;;;;;;12.98;11.75;;;23.20;99.90;;;;;;5132441;27;20856;-52
2022/08/15 08:47:35;;;;;;;13.27;11.70;;;23.40;99.90;;;;;;5132368;27;20207;-51
2022/08/15 08:50:19;;;;;;;12.15;11.00;;;23.50;99.90;;;;;;5131963;27;20711;-52
2022/08/15 08:53:17;;;;;;;12.20;11.00;;;23.60;99.90;;;;;;5109194;27;20687;-52
2022/08/15 08:56:03;;;;;;;11.90;10.70;;;23.70;99.90;;;;;;5121724;27;20248;-52
2022/08/15 08:58:36;;;;;;;11.43;10.32;;;24.10;99.90;;;;;;5131285;27;20209;-52
2022/08/15 09:01:15;;;;;;;12.05;10.95;;;24.20;99.90;;;;;;5132137;27;20275;-52
2022/08/15 09:03:52;;;;;;;11.82;10.32;;;24.40;99.90;;;;;;5132106;27;20310;-52
2022/08/15 09:06:25;;;;;;;11.30;10.25;;;24.40;99.90;;;;;;5132156;27;20198;-52
2022/08/15 09:09:03;;;;;;;11.48;10.25;;;24.50;99.90;;;;;;5131251;27;20722;-52
2022/08/15 09:11:38;;;;;;;10.88;9.85;;;24.40;99.90;;;;;;5127698;27;20223;-52
2022/08/15 09:14:20;;;;;;;11.82;10.07;;;24.30;99.90;;;;;;5123121;27;20203;-52
2022/08/15 09:17:07;;;;;;;12.02;10.85;;;24.30;99.90;;;;;;5130915;27;20381;-52
2022/08/15 09:20:01;;;;;;;11.90;10.70;;;24.20;99.90;;;;;;5119092;27;20290;-52
2022/08/15 09:22:29;;;;;;;12.88;11.63;;;24.10;99.90;;;;;;5131160;27;20722;-52
2022/08/15 09:24:58;;;;;;;17.88;13.80;;;24.00;99.90;;;;;;5131074;27;20207;-52
2022/08/15 09:27:43;;;;;;;16.80;15.00;;;24.00;99.90;;;;;;5123125;27;20552;-52
2022/08/15 09:30:26;;;;;;;16.48;14.98;;;23.90;99.90;;;;;;5129723;27;20247;-52
2022/08/15 09:33:28;;;;;;;16.52;14.90;;;23.90;99.90;;;;;;5110970;27;20283;-52
2022/08/15 09:36:23;;;;;;;15.15;13.55;;;23.90;99.90;;;;;;5103746;28;20809;-52
2022/08/15 09:39:08;;;;;;;16.45;14.75;;;23.80;99.90;;;;;;5108040;28;20192;-51
2022/08/15 09:41:49;;;;;;;16.95;15.25;;;23.70;99.90;;;;;;5110227;28;20272;-52
2022/08/15 09:44:36;;;;;;;16.77;15.00;;;23.70;99.90;;;;;;5110362;28;20233;-52
2022/08/15 09:47:45;;;;;;;17.08;14.82;;;23.50;99.90;;;;;;5106550;28;20204;-52
2022/08/15 09:50:33;;;;;;;16.05;14.45;;;23.40;99.90;;;;;;5109857;28;20319;-50
2022/08/15 09:53:23;;;;;;;16.05;14.52;;;23.30;99.90;;;;;;5123156;27;20211;-52
2022/08/15 09:55:52;;;;;;;15.98;14.40;;;23.10;99.90;;;;;;5109310;28;20207;-52
2022/08/15 09:58:24;;;;;;;16.73;14.55;;;23.10;99.90;;;;;;5110016;28;20227;-52
2022/08/15 10:01:03;;;;;;;17.52;15.80;;;23.00;99.90;;;;;;5110134;28;20238;-52
2022/08/15 10:03:58;;;;;;;16.63;15.05;;;23.00;99.90;;;;;;5109400;28;20290;-51
2022/08/15 10:06:29;;;;;;;16.95;15.18;;;23.10;99.90;;;;;;5110201;28;20196;-52
2022/08/15 10:09:16;;;;;;;20.00;16.77;;;23.10;99.90;;;;;;5110065;28;20267;-51
2022/08/15 10:12:00;;;;;;;20.13;17.02;;;23.00;99.90;;;;;;5109994;28;20243;-51
2022/08/15 10:14:50;;;;;;;18.25;16.42;;;23.00;99.90;;;;;;5124039;27;20583;-51
2022/08/15 10:17:27;;;;;;;18.65;16.23;;;23.00;99.90;;;;;;5130299;27;20207;-52
2022/08/15 10:19:56;;;;;;;17.40;15.63;;;23.10;99.90;;;;;;5117943;27;20203;-51
2022/08/15 10:22:50;;;;;;;17.83;15.90;;;23.10;99.90;;;;;;5120624;27;20294;-52
2022/08/15 10:25:28;;;;;;;17.92;16.15;;;23.10;99.90;;;;;;5130135;27;20270;-52
2022/08/15 10:28:02;;;;;;;17.60;15.45;;;23.00;99.90;;;;;;5124971;27;20219;-52
2022/08/15 10:31:24;;;;;;;16.23;14.10;;;23.00;99.90;;;;;;5105245;27;20318;-52
2022/08/15 10:34:19;;;;;;;16.45;14.68;;;23.10;99.90;;;;;;5122514;27;20298;-51
2022/08/15 10:37:15;;;;;;;17.50;15.63;;;23.00;99.90;;;;;;5129544;27;20202;-52
2022/08/15 10:40:01;;;;;;;18.73;16.85;;;23.10;99.90;;;;;;5128610;27;20659;-52
2022/08/15 10:42:38;;;;;;;16.83;15.00;;;23.10;99.90;;;;;;5102030;28;20771;-52
2022/08/15 10:45:22;;;;;;;16.95;15.00;;;23.20;99.90;;;;;;5129468;28;20199;-52
2022/08/15 10:48:03;;;;;;;17.67;15.77;;;23.20;99.90;;;;;;5129614;28;20202;-52
2022/08/15 10:50:51;;;;;;;16.95;15.27;;;23.20;99.90;;;;;;5129475;28;20230;-52
2022/08/15 10:53:33;;;;;;;19.25;16.58;;;23.20;99.90;;;;;;5130462;28;20203;-52
2022/08/15 10:56:22;;;;;;;17.67;15.95;;;23.20;99.90;;;;;;5117834;28;20267;-52
2022/08/15 10:59:18;;;;;;;18.27;16.38;;;23.30;99.90;;;;;;5128370;28;20279;-52
2022/08/15 11:01:47;;;;;;;18.80;17.02;;;23.40;99.90;;;;;;5127434;28;20226;-52
2022/08/15 11:04:26;;;;;;;17.85;16.08;;;23.60;99.90;;;;;;5129448;28;20211;-52
2022/08/15 11:07:20;;;;;;;16.90;15.15;;;23.80;99.90;;;;;;5129508;28;20584;-52
2022/08/15 11:09:54;;;;;;;15.95;13.95;;;24.00;99.90;;;;;;5113501;28;20320;-52
2022/08/15 11:12:24;;;;;;;15.93;14.32;;;24.10;99.90;;;;;;5118572;28;20227;-52
2022/08/15 11:14:59;;;;;;;15.23;13.82;;;24.20;99.90;;;;;;5127185;27;20203;-52
2022/08/15 11:17:35;;;;;;;15.10;13.43;;;24.30;99.90;;;;;;5133189;27;20859;-52
2022/08/15 11:20:17;;;;;;;14.98;13.52;;;24.30;99.90;;;;;;5121700;27;20300;-52
2022/08/15 11:22:51;;;;;;;15.07;13.48;;;24.30;99.90;;;;;;5133226;27;20194;-52
2022/08/15 11:25:24;;;;;;;14.80;13.38;;;24.40;99.90;;;;;;5133542;27;20612;-52
2022/08/15 11:28:02;;;;;;;15.38;13.95;;;24.40;99.90;;;;;;5128113;27;20203;-52
2022/08/15 11:31:00;;;;;;;17.10;15.27;;;24.50;99.90;;;;;;5113254;27;20235;-52
2022/08/15 11:33:40;;;;;;;15.95;13.77;;;24.60;99.90;;;;;;5125487;27;20564;-53
2022/08/15 11:36:11;;;;;;;17.80;14.85;;;24.60;99.90;;;;;;5110640;27;20818;-52
2022/08/15 11:38:46;;;;;;;17.77;16.00;;;24.60;99.90;;;;;;5107426;28;20207;-52
2022/08/15 11:41:41;;;;;;;18.60;16.63;;;24.50;99.90;;;;;;5112390;28;20310;-52
2022/08/15 11:44:22;;;;;;;17.58;15.73;;;24.50;99.90;;;;;;5112791;28;20242;-52
2022/08/15 11:46:52;;;;;;;17.52;15.82;;;24.50;99.90;;;;;;5102265;28;20691;-52
2022/08/15 11:49:31;;;;;;;21.40;16.02;;;24.60;99.90;;;;;;5112311;28;20207;-52
2022/08/15 11:52:06;;;;;;;16.73;14.93;;;24.60;99.90;;;;;;5112079;28;20227;-53
2022/08/15 11:55:16;;;;;;;17.98;16.13;;;24.70;99.90;;;;;;5101494;28;20323;-53
2022/08/15 11:57:59;;;;;;;16.23;14.52;;;24.80;99.90;;;;;;5110856;28;20198;-52
2022/08/15 12:00:38;;;;;;;17.10;15.48;;;24.90;99.90;;;;;;5112339;28;20208;-52
2022/08/15 12:03:20;;;;;;;14.55;13.05;;;25.10;99.90;;;;;;5111317;28;20203;-52
2022/08/15 12:06:22;;;;;;;15.50;12.95;;;25.20;99.90;;;;;;5112347;28;20282;-53
2022/08/15 12:09:14;;;;;;;16.35;14.75;;;25.30;99.90;;;;;;5111208;28;20305;-53
2022/08/15 12:11:46;;;;;;;15.45;13.90;;;25.50;99.90;;;;;;5100558;28;20224;-53
2022/08/15 12:14:22;;;;;;;15.50;13.90;;;25.50;99.90;;;;;;5124275;27;20687;-52
2022/08/15 12:16:57;;;;;;;12.75;11.52;;;25.60;99.90;;;;;;5117322;27;20228;-53
2022/08/15 12:19:40;;;;;;;12.45;10.40;;;25.70;99.90;;;;;;5120809;27;20210;-52
2022/08/15 12:22:32;;;;;;;16.35;11.57;;;25.80;99.90;;;;;;5122029;27;20669;-53
2022/08/15 12:25:20;;;;;;;12.57;11.07;;;25.80;99.90;;;;;;5131393;27;20302;-52
2022/08/15 12:28:09;;;;;;;16.73;12.13;;;25.80;99.90;;;;;;5123951;27;20290;-53
2022/08/15 12:30:54;;;;;;;11.82;10.63;;;25.80;99.90;;;;;;5131624;27;20231;-53
2022/08/15 12:33:25;;;;;;;12.65;10.75;;;25.80;99.90;;;;;;5124564;27;20232;-53
2022/08/15 12:35:56;;;;;;;12.98;11.65;;;25.90;99.90;;;;;;5131915;27;20621;-52
2022/08/15 12:38:28;;;;;;;12.77;11.05;;;26.00;99.90;;;;;;5132080;27;20663;-52
2022/08/15 12:41:00;;;;;;;13.50;11.05;;;25.90;99.90;;;;;;5131844;27;20215;-52
2022/08/15 12:43:48;;;;;;;16.08;14.00;;;26.10;99.90;;;;;;5132079;27;20249;-52
2022/08/15 12:46:17;;;;;;;13.52;11.50;;;26.20;99.90;;;;;;5131574;27;20256;-53
2022/08/15 12:48:48;;;;;;;14.43;10.82;;;26.00;99.90;;;;;;5131100;27;20211;-52
2022/08/15 12:51:27;;;;;;;15.55;13.93;;;25.90;99.90;;;;;;5131427;27;20317;-53
2022/08/15 12:53:57;;;;;;;11.55;10.15;;;25.90;99.90;;;;;;5131046;27;20210;-52
2022/08/15 12:56:25;;;;;;;11.07;10.07;;;26.00;99.90;;;;;;5121645;27;20240;-52
2022/08/15 12:59:11;;;;;;;11.20;9.10;;;25.90;99.90;;;;;;5131548;27;20207;-53
2022/08/15 13:01:42;;;;;;;13.70;11.27;;;25.90;99.90;;;;;;5131065;27;20276;-52
2022/08/15 13:04:26;;;;;;;9.45;8.65;;;25.90;99.90;;;;;;5128926;27;20207;-52
2022/08/15 13:07:16;;;;;;;10.70;9.60;;;25.80;99.90;;;;;;5130437;27;20641;-53
2022/08/15 13:09:58;;;;;;;11.10;9.98;;;25.60;99.90;;;;;;5104177;27;20203;-53
2022/08/15 13:12:47;;;;;;;11.40;9.65;;;25.60;99.90;;;;;;5113926;27;20252;-52
2022/08/15 13:15:15;;;;;;;10.75;9.48;;;25.70;99.90;;;;;;5116643;27;20259;-52
2022/08/15 13:17:43;;;;;;;10.15;9.25;;;25.70;99.90;;;;;;5129695;27;20332;-53
2022/08/15 13:26:22;;;;;;;14.50;9.15;;;25.90;99.90;;;;;;5106607;27;20290;-52
2022/08/15 13:29:00;;;;;;;10.10;8.77;;;26.00;99.90;;;;;;5109988;28;20203;-53
2022/08/15 13:31:28;;;;;;;13.52;8.95;;;26.10;99.90;;;;;;5110120;28;20274;-52
2022/08/15 13:33:58;;;;;;;11.98;10.68;;;26.10;99.90;;;;;;5105701;28;20652;-51
2022/08/15 13:36:30;;;;;;;10.00;9.05;;;26.20;99.90;;;;;;5110593;28;20288;-52
2022/08/15 13:39:04;;;;;;;11.32;8.88;;;26.20;99.90;;;;;;5109393;28;20200;-52